createdAt,value
2023-01-26T00:00:02.109Z,36.15
2023-01-26T00:01:34.833Z,34.33
2023-01-26T00:03:07.517Z,35.17
2023-01-26T00:04:40.209Z,34.42
2023-01-26T00:06:14.798Z,31.27
2023-01-26T00:07:47.491Z,32.03
2023-01-26T00:09:20.309Z,33.40
2023-01-26T00:10:54.330Z,34.40
2023-01-26T00:12:27.014Z,34.97
2023-01-26T00:14:01.197Z,36.72
2023-01-26T00:15:34.304Z,32.67
2023-01-26T00:17:06.993Z,34.50
2023-01-26T00:18:40.702Z,34.42
2023-01-26T00:20:13.997Z,30.40
2023-01-26T00:21:46.748Z,32.97
2023-01-26T00:23:19.424Z,36.80
2023-01-26T00:24:51.188Z,34.05
2023-01-26T00:26:27.733Z,32.78
2023-01-26T00:28:00.448Z,35.33
2023-01-26T00:29:32.179Z,37.38
2023-01-26T00:31:05.663Z,37.60
2023-01-26T00:32:39.306Z,36.63
2023-01-26T00:34:11.988Z,38.22
2023-01-26T00:35:44.864Z,35.90
2023-01-26T00:37:17.581Z,32.70
2023-01-26T00:38:50.400Z,35.40
2023-01-26T00:40:23.092Z,32.15
2023-01-26T00:42:09.891Z,34.00
2023-01-26T00:43:42.614Z,31.75
2023-01-26T00:45:15.383Z,30.00
2023-01-26T00:46:47.141Z,32.35
2023-01-26T00:48:19.930Z,33.35
2023-01-26T00:49:52.610Z,35.10
2023-01-26T00:51:25.317Z,35.03
2023-01-26T00:52:58.225Z,33.72
2023-01-26T00:54:31.265Z,32.80
2023-01-26T00:56:03.989Z,30.70
2023-01-26T00:57:38.077Z,32.55
2023-01-26T00:59:09.969Z,33.30
2023-01-26T01:00:42.734Z,32.10
2023-01-26T01:02:15.582Z,29.90
2023-01-26T01:03:47.358Z,30.55
2023-01-26T01:05:20.127Z,31.27
2023-01-26T01:06:51.925Z,31.80
2023-01-26T01:08:24.658Z,26.02
2023-01-26T01:09:57.355Z,27.92
2023-01-26T01:11:30.061Z,31.40
2023-01-26T01:13:03.123Z,31.10
2023-01-26T01:14:35.795Z,29.63
2023-01-26T01:16:09.648Z,33.58
2023-01-26T01:17:42.610Z,29.23
2023-01-26T01:19:16.514Z,32.35
2023-01-26T01:20:48.254Z,30.67
2023-01-26T01:22:21.054Z,28.98
2023-01-26T01:23:54.109Z,30.05
2023-01-26T01:25:25.873Z,29.90
2023-01-26T01:26:58.563Z,31.80
2023-01-26T01:28:32.544Z,30.77
2023-01-26T01:30:07.985Z,36.20
2023-01-26T01:31:43.128Z,34.63
2023-01-26T01:33:14.897Z,32.55
2023-01-26T01:34:48.551Z,29.40
2023-01-26T01:36:20.338Z,26.02
2023-01-26T01:37:52.996Z,28.67
2023-01-26T01:39:25.776Z,24.80
2023-01-26T01:40:57.606Z,29.15
2023-01-26T01:42:30.305Z,38.60
2023-01-26T01:44:16.150Z,34.25
2023-01-26T01:45:49.804Z,29.55
2023-01-26T01:47:26.599Z,30.05
2023-01-26T01:49:02.588Z,32.97
2023-01-26T01:50:40.199Z,34.47
2023-01-26T01:52:17.498Z,26.98
2023-01-26T01:53:53.032Z,31.83
2023-01-26T01:55:26.104Z,28.85
2023-01-26T01:57:03.444Z,26.92
2023-01-26T01:58:40.151Z,25.60
2023-01-26T02:00:16.758Z,28.48
2023-01-26T02:01:50.990Z,26.20
2023-01-26T02:03:23.203Z,23.80
2023-01-26T02:05:01.496Z,25.17
2023-01-26T02:06:38.823Z,23.13
2023-01-26T02:08:13.268Z,23.85
2023-01-26T02:10:04.152Z,23.73
2023-01-26T02:11:41.176Z,26.60
2023-01-26T02:13:13.465Z,23.88
2023-01-26T02:14:46.993Z,20.92
2023-01-26T02:16:21.348Z,22.42
2023-01-26T02:17:54.821Z,22.92
2023-01-26T02:19:38.453Z,22.85
2023-01-26T02:21:13.940Z,23.20
2023-01-26T02:22:51.286Z,21.17
2023-01-26T02:24:28.778Z,20.45
2023-01-26T02:26:11.273Z,21.10
2023-01-26T02:27:44.304Z,18.80
2023-01-26T02:29:17.110Z,22.45
2023-01-26T02:30:50.557Z,19.08
2023-01-26T02:32:23.251Z,19.48
2023-01-26T02:33:55.956Z,17.65
2023-01-26T02:35:27.738Z,15.95
2023-01-26T02:37:01.621Z,18.42
2023-01-26T02:38:40.270Z,17.75
2023-01-26T02:40:22.015Z,16.00
2023-01-26T02:42:13.962Z,14.90
2023-01-26T02:43:46.641Z,14.43
2023-01-26T02:45:19.437Z,13.35
2023-01-26T02:46:51.189Z,12.23
2023-01-26T02:48:38.138Z,11.98
2023-01-26T02:50:11.951Z,13.45
2023-01-26T02:51:43.871Z,12.57
2023-01-26T02:53:16.554Z,14.07
2023-01-26T02:55:06.728Z,14.38
2023-01-26T02:56:40.827Z,13.15
2023-01-26T02:58:14.842Z,11.57
2023-01-26T02:59:46.603Z,9.30
2023-01-26T03:01:19.276Z,10.48
2023-01-26T03:02:54.401Z,12.20
2023-01-26T03:04:27.250Z,10.88
2023-01-26T03:05:59.954Z,10.85
2023-01-26T03:07:32.972Z,9.05
2023-01-26T03:09:05.643Z,9.57
2023-01-26T03:10:38.452Z,10.02
2023-01-26T03:12:11.351Z,10.73
2023-01-26T03:13:45.402Z,9.93
2023-01-26T03:15:32.201Z,9.43
2023-01-26T03:17:04.891Z,9.95
2023-01-26T03:18:55.622Z,9.57
2023-01-26T03:20:46.186Z,8.90
2023-01-26T03:22:36.659Z,8.40
2023-01-26T03:24:30.554Z,7.97
2023-01-26T03:26:20.758Z,9.32
2023-01-26T03:27:53.434Z,6.75
2023-01-26T03:29:28.226Z,8.18
2023-01-26T03:31:00.975Z,6.53
2023-01-26T03:32:32.861Z,6.88
2023-01-26T03:34:05.736Z,7.60
2023-01-26T03:35:38.657Z,7.10
2023-01-26T03:37:11.723Z,7.30
2023-01-26T03:38:44.418Z,6.25
2023-01-26T03:40:34.642Z,7.20
2023-01-26T03:42:25.034Z,7.00
2023-01-26T03:44:15.417Z,8.13
2023-01-26T03:46:07.220Z,7.97
2023-01-26T03:47:57.512Z,7.97
2023-01-26T03:49:47.920Z,7.60
2023-01-26T03:51:38.253Z,8.30
2023-01-26T03:53:32.641Z,8.05
2023-01-26T03:55:23.832Z,6.82
2023-01-26T03:56:56.521Z,8.32
2023-01-26T03:58:30.145Z,7.40
2023-01-26T04:00:03.049Z,7.35
2023-01-26T04:01:39.190Z,8.52
2023-01-26T04:03:29.817Z,8.18
2023-01-26T04:05:20.264Z,8.85
2023-01-26T04:07:10.892Z,8.13
2023-01-26T04:08:43.612Z,7.20
2023-01-26T04:10:17.032Z,6.60
2023-01-26T04:11:50.057Z,7.63
2023-01-26T04:13:42.513Z,6.68
2023-01-26T04:15:32.949Z,6.13
2023-01-26T04:17:24.493Z,7.00
2023-01-26T04:19:14.856Z,7.00
2023-01-26T04:21:05.144Z,7.28
2023-01-26T04:22:43.563Z,6.85
2023-01-26T04:24:17.263Z,7.22
2023-01-26T04:25:50.320Z,6.82
2023-01-26T04:27:22.081Z,6.18
2023-01-26T04:28:54.940Z,5.15
2023-01-26T04:30:27.671Z,5.47
2023-01-26T04:32:00.392Z,5.32
2023-01-26T04:33:34.415Z,5.40
2023-01-26T04:35:08.314Z,6.53
2023-01-26T04:36:41.325Z,5.47
2023-01-26T04:38:14.010Z,5.57
2023-01-26T04:39:46.690Z,5.65
2023-01-26T04:41:19.504Z,5.15
2023-01-26T04:42:52.193Z,6.68
2023-01-26T04:44:24.877Z,6.03
2023-01-26T04:46:02.008Z,6.50
2023-01-26T04:47:34.798Z,5.88
2023-01-26T04:49:08.036Z,6.00
2023-01-26T04:50:40.718Z,6.85
2023-01-26T04:52:13.662Z,5.75
2023-01-26T04:53:46.620Z,4.88
2023-01-26T04:55:19.634Z,5.63
2023-01-26T04:56:52.442Z,4.22
2023-01-26T04:58:24.381Z,5.13
2023-01-26T04:59:57.084Z,4.45
2023-01-26T05:01:30.599Z,5.35
2023-01-26T05:03:03.285Z,4.90
2023-01-26T05:04:37.551Z,6.07
2023-01-26T05:06:10.538Z,5.82
2023-01-26T05:07:43.219Z,5.53
2023-01-26T05:09:15.917Z,5.35
2023-01-26T05:10:49.480Z,5.68
2023-01-26T05:12:33.352Z,4.78
2023-01-26T05:14:06.041Z,6.57
2023-01-26T05:15:39.006Z,6.30
2023-01-26T05:17:11.701Z,6.03
2023-01-26T05:18:44.944Z,5.55
2023-01-26T05:20:19.307Z,5.68
2023-01-26T05:21:51.979Z,7.25
2023-01-26T05:23:24.739Z,6.97
2023-01-26T05:24:57.410Z,8.48
2023-01-26T05:26:30.357Z,6.68
2023-01-26T05:28:02.260Z,6.80
2023-01-26T05:29:34.940Z,6.43
2023-01-26T05:31:07.673Z,7.10
2023-01-26T05:32:40.437Z,6.50
2023-01-26T05:34:13.135Z,7.40
2023-01-26T05:35:47.159Z,7.28
2023-01-26T05:37:19.855Z,9.38
2023-01-26T05:38:52.548Z,8.50
2023-01-26T05:40:26.042Z,9.75
2023-01-26T05:41:58.730Z,9.23
2023-01-26T05:43:30.727Z,8.98
2023-01-26T05:45:03.566Z,8.48
2023-01-26T05:46:36.255Z,7.05
2023-01-26T05:48:08.961Z,7.85
2023-01-26T05:49:42.899Z,8.45
2023-01-26T05:51:16.908Z,9.68
2023-01-26T05:52:49.894Z,8.50
2023-01-26T05:54:21.642Z,8.27
2023-01-26T05:55:54.344Z,7.80
2023-01-26T05:57:26.113Z,7.93
2023-01-26T05:58:58.795Z,7.88
2023-01-26T06:00:31.593Z,8.27
2023-01-26T06:02:04.684Z,9.73
2023-01-26T06:03:37.405Z,9.68
2023-01-26T06:05:10.681Z,7.70
2023-01-26T06:06:44.831Z,8.20
2023-01-26T06:08:17.509Z,8.98
2023-01-26T06:09:50.221Z,8.73
2023-01-26T06:11:22.910Z,9.27
2023-01-26T06:12:55.637Z,10.30
2023-01-26T06:14:28.406Z,11.60
2023-01-26T06:16:01.894Z,8.30
2023-01-26T06:17:34.599Z,10.25
2023-01-26T06:19:07.614Z,11.13
2023-01-26T06:20:41.853Z,10.35
2023-01-26T06:22:16.883Z,10.15
2023-01-26T06:23:49.644Z,9.45
2023-01-26T06:25:22.358Z,10.52
2023-01-26T06:26:55.274Z,9.10
2023-01-26T06:28:28.563Z,8.18
2023-01-26T06:30:01.234Z,11.65
2023-01-26T06:31:34.087Z,9.70
2023-01-26T06:33:07.462Z,8.95
2023-01-26T06:34:40.414Z,9.90
2023-01-26T06:36:14.787Z,8.82
2023-01-26T06:37:51.346Z,11.30
2023-01-26T06:39:24.153Z,9.93
2023-01-26T06:40:59.869Z,8.60
2023-01-26T06:42:32.544Z,12.30
2023-01-26T06:44:05.328Z,10.82
2023-01-26T06:45:38.122Z,8.85
2023-01-26T06:47:12.221Z,11.27
2023-01-26T06:48:44.912Z,9.73
2023-01-26T06:50:19.860Z,11.38
2023-01-26T06:52:03.197Z,11.40
2023-01-26T06:53:39.970Z,12.05
2023-01-26T06:55:19.567Z,11.77
2023-01-26T06:56:52.256Z,14.30
2023-01-26T06:58:25.004Z,11.68
2023-01-26T06:59:57.899Z,11.88
2023-01-26T07:01:34.427Z,12.45
2023-01-26T07:03:07.145Z,12.88
2023-01-26T07:04:39.830Z,10.93
2023-01-26T07:06:12.534Z,11.00
2023-01-26T07:07:45.226Z,11.82
2023-01-26T07:09:19.223Z,10.82
2023-01-26T07:10:52.076Z,12.15
2023-01-26T07:12:24.945Z,12.20
2023-01-26T07:13:58.130Z,12.35
2023-01-26T07:15:30.861Z,13.02
2023-01-26T07:17:04.051Z,14.88
2023-01-26T07:18:37.095Z,15.77
2023-01-26T07:20:11.396Z,15.00
2023-01-26T07:21:44.303Z,11.55
2023-01-26T07:23:16.980Z,12.80
2023-01-26T07:24:51.028Z,13.52
2023-01-26T07:26:23.877Z,15.05
2023-01-26T07:27:57.340Z,14.65
2023-01-26T07:29:30.665Z,14.52
2023-01-26T07:31:04.891Z,14.82
2023-01-26T07:32:37.586Z,12.70
2023-01-26T07:34:10.547Z,17.27
2023-01-26T07:35:43.356Z,14.68
2023-01-26T07:37:16.087Z,13.73
2023-01-26T07:38:48.805Z,12.90
2023-01-26T07:40:22.821Z,15.35
2023-01-26T07:41:55.501Z,13.82
2023-01-26T07:43:28.181Z,13.43
2023-01-26T07:45:01.335Z,14.40
2023-01-26T07:46:34.052Z,12.85
2023-01-26T07:48:06.907Z,14.48
2023-01-26T07:49:39.592Z,14.80
2023-01-26T07:51:12.756Z,14.18
2023-01-26T07:52:45.426Z,13.50
2023-01-26T07:54:18.113Z,13.55
2023-01-26T07:55:52.124Z,12.13
2023-01-26T07:57:24.800Z,15.15
2023-01-26T07:58:57.809Z,12.80
2023-01-26T08:00:30.620Z,15.10
2023-01-26T08:02:03.372Z,15.05
2023-01-26T08:03:36.225Z,14.50
2023-01-26T08:05:09.894Z,13.77
2023-01-26T08:06:42.593Z,13.50
2023-01-26T08:08:15.320Z,14.25
2023-01-26T08:09:48.015Z,14.60
2023-01-26T08:11:24.205Z,15.07
2023-01-26T08:12:56.873Z,16.40
2023-01-26T08:14:45.097Z,15.30
2023-01-26T08:16:19.348Z,16.27
2023-01-26T08:17:54.441Z,14.90
2023-01-26T08:19:27.288Z,14.85
2023-01-26T08:21:00.451Z,14.90
2023-01-26T08:22:33.160Z,14.65
2023-01-26T08:24:06.425Z,14.30
2023-01-26T08:25:39.175Z,14.93
2023-01-26T08:27:14.635Z,15.85
2023-01-26T08:28:47.844Z,13.90
2023-01-26T08:30:20.875Z,17.02
2023-01-26T08:31:53.731Z,19.02
2023-01-26T08:33:26.499Z,16.92
2023-01-26T08:34:59.177Z,16.02
2023-01-26T08:36:31.872Z,15.63
2023-01-26T08:38:04.888Z,17.40
2023-01-26T08:39:37.552Z,17.70
2023-01-26T08:41:10.896Z,19.63
2023-01-26T08:42:44.948Z,15.98
2023-01-26T08:44:17.629Z,18.75
2023-01-26T08:45:50.397Z,17.38
2023-01-26T08:47:23.229Z,18.33
2023-01-26T08:48:55.931Z,16.83
2023-01-26T08:50:28.658Z,19.30
2023-01-26T08:52:01.365Z,16.55
2023-01-26T08:53:35.467Z,16.92
2023-01-26T08:55:08.732Z,16.73
2023-01-26T08:56:41.424Z,16.70
2023-01-26T08:58:15.442Z,15.82
2023-01-26T08:59:48.127Z,17.67
2023-01-26T09:01:20.857Z,19.90
2023-01-26T09:02:59.569Z,19.27
2023-01-26T09:04:32.388Z,18.75
2023-01-26T09:06:06.757Z,19.30
2023-01-26T09:07:39.821Z,18.65
2023-01-26T09:09:13.214Z,17.65
2023-01-26T09:10:45.960Z,17.20
2023-01-26T09:12:18.654Z,19.70
2023-01-26T09:13:56.569Z,18.35
2023-01-26T09:15:29.411Z,16.88
2023-01-26T09:17:02.089Z,17.95
2023-01-26T09:18:35.214Z,17.92
2023-01-26T09:20:09.781Z,17.38
2023-01-26T09:21:42.608Z,16.67
2023-01-26T09:23:17.824Z,16.55
2023-01-26T09:24:50.529Z,16.85
2023-01-26T09:26:23.220Z,16.35
2023-01-26T09:27:55.912Z,20.27
2023-01-26T09:29:29.936Z,19.33
2023-01-26T09:31:05.700Z,18.10
2023-01-26T09:32:38.721Z,19.63
2023-01-26T09:34:11.400Z,17.55
2023-01-26T09:35:44.198Z,16.92
2023-01-26T09:37:16.918Z,18.05
2023-01-26T09:38:51.014Z,16.13
2023-01-26T09:40:32.124Z,17.05
2023-01-26T09:42:21.224Z,18.63
2023-01-26T09:43:56.491Z,16.33
2023-01-26T09:45:39.528Z,14.80
2023-01-26T09:47:21.440Z,16.85
2023-01-26T09:49:06.015Z,15.48
2023-01-26T09:50:44.451Z,20.40
2023-01-26T09:52:24.151Z,16.38
2023-01-26T09:53:59.314Z,21.65
2023-01-26T09:55:32.057Z,22.13
2023-01-26T09:57:14.494Z,19.27
2023-01-26T09:58:51.672Z,18.95
2023-01-26T10:00:28.948Z,18.80
2023-01-26T10:02:18.754Z,20.00
2023-01-26T10:03:57.316Z,20.05
2023-01-26T10:05:51.532Z,19.13
2023-01-26T10:07:24.274Z,20.38
2023-01-26T10:08:58.855Z,22.42
2023-01-26T10:10:36.105Z,22.60
2023-01-26T10:12:15.966Z,23.17
2023-01-26T10:13:54.691Z,19.65
2023-01-26T10:15:32.660Z,24.38
2023-01-26T10:17:08.364Z,22.88
2023-01-26T10:18:51.064Z,21.33
2023-01-26T10:20:29.630Z,18.48
2023-01-26T10:22:09.416Z,20.38
2023-01-26T10:23:48.306Z,21.85
2023-01-26T10:25:28.747Z,23.95
2023-01-26T10:27:01.551Z,20.98
2023-01-26T10:28:36.536Z,22.50
2023-01-26T10:30:14.729Z,23.50
2023-01-26T10:31:47.629Z,24.40
2023-01-26T10:33:26.109Z,22.00
2023-01-26T10:34:59.906Z,19.92
2023-01-26T10:36:33.611Z,20.52
2023-01-26T10:38:44.171Z,17.13
2023-01-26T10:40:18.285Z,19.15
2023-01-26T10:41:59.214Z,19.00
2023-01-26T10:43:35.883Z,20.52
2023-01-26T10:45:26.219Z,21.15
2023-01-26T10:47:08.078Z,21.65
2023-01-26T10:48:52.957Z,21.15
2023-01-26T10:50:26.763Z,21.33
2023-01-26T10:52:17.283Z,21.38
2023-01-26T10:53:50.151Z,23.23
2023-01-26T10:55:22.993Z,26.52
2023-01-26T10:56:58.136Z,24.92
2023-01-26T10:58:44.799Z,23.52
2023-01-26T11:00:25.432Z,24.77
2023-01-26T11:02:01.138Z,23.45
2023-01-26T11:03:33.869Z,26.83
2023-01-26T11:05:29.043Z,26.45
2023-01-26T11:07:26.352Z,24.08
2023-01-26T11:09:11.246Z,27.98
2023-01-26T11:10:53.251Z,26.27
2023-01-26T11:12:26.601Z,28.83
2023-01-26T11:14:13.756Z,24.92
2023-01-26T11:15:48.626Z,30.00
2023-01-26T11:17:25.190Z,28.70
2023-01-26T11:19:01.089Z,28.90
2023-01-26T11:20:48.576Z,30.27
2023-01-26T11:22:29.827Z,28.38
2023-01-26T11:24:06.102Z,34.95
2023-01-26T11:25:46.673Z,30.67
2023-01-26T11:27:29.987Z,30.73
2023-01-26T11:29:19.213Z,36.58
2023-01-26T11:31:13.337Z,34.45
2023-01-26T11:32:56.216Z,38.47
2023-01-26T11:34:36.657Z,29.70
2023-01-26T11:36:20.518Z,31.27
2023-01-26T11:38:02.228Z,28.50
2023-01-26T11:39:43.145Z,27.50
2023-01-26T11:41:28.879Z,26.23
2023-01-26T11:43:24.538Z,28.08
2023-01-26T11:45:18.291Z,26.48
2023-01-26T11:47:06.187Z,28.05
2023-01-26T11:48:49.797Z,28.52
2023-01-26T11:50:31.456Z,27.90
2023-01-26T11:52:14.415Z,25.52
2023-01-26T11:54:08.021Z,24.55
2023-01-26T11:55:56.346Z,25.48
2023-01-26T11:57:38.959Z,27.75
2023-01-26T11:59:16.378Z,29.73
2023-01-26T12:00:52.430Z,26.60
2023-01-26T12:02:30.744Z,29.13
2023-01-26T12:04:03.487Z,28.45
2023-01-26T12:05:42.797Z,29.05
2023-01-26T12:07:21.682Z,24.77
2023-01-26T12:08:59.196Z,28.50
2023-01-26T12:10:37.517Z,30.92
2023-01-26T12:12:15.424Z,23.15
2023-01-26T12:13:53.264Z,23.77
2023-01-26T12:15:30.426Z,26.27
2023-01-26T12:17:37.050Z,27.88
2023-01-26T12:19:29.712Z,23.77
2023-01-26T12:21:06.778Z,23.55
2023-01-26T12:22:47.434Z,22.35
2023-01-26T12:25:04.812Z,20.50
2023-01-26T12:26:33.684Z,25.27
2023-01-26T12:28:16.515Z,20.75
2023-01-26T12:29:53.758Z,24.05
2023-01-26T12:31:33.038Z,24.52
2023-01-26T12:33:06.198Z,23.45
2023-01-26T12:34:39.005Z,21.13
2023-01-26T12:36:37.197Z,23.02
2023-01-26T12:38:18.371Z,23.58
2023-01-26T12:40:02.293Z,26.17
2023-01-26T12:41:46.000Z,23.70
2023-01-26T12:43:29.140Z,24.05
2023-01-26T12:45:02.750Z,17.08
2023-01-26T12:46:40.309Z,17.98
2023-01-26T12:48:17.369Z,17.77
2023-01-26T12:49:57.191Z,16.17
2023-01-26T12:51:33.625Z,15.25
2023-01-26T12:53:12.311Z,15.20
2023-01-26T12:54:50.663Z,14.18
2023-01-26T12:56:27.383Z,12.75
2023-01-26T12:58:03.144Z,13.00
2023-01-26T12:59:48.206Z,14.20
2023-01-26T13:01:23.696Z,10.20
2023-01-26T13:03:00.304Z,12.43
2023-01-26T13:04:33.037Z,11.18
2023-01-26T13:06:20.444Z,13.25
2023-01-26T13:07:53.148Z,12.20
2023-01-26T13:09:27.094Z,12.95
2023-01-26T13:11:04.549Z,13.38
2023-01-26T13:12:48.135Z,11.85
2023-01-26T13:14:56.665Z,15.48
2023-01-26T13:16:33.890Z,13.02
2023-01-26T13:18:06.596Z,10.43
2023-01-26T13:19:53.340Z,12.07
2023-01-26T13:21:29.280Z,10.52
2023-01-26T13:23:02.025Z,12.70
2023-01-26T13:24:46.749Z,14.43
2023-01-26T13:26:26.282Z,12.40
2023-01-26T13:28:00.978Z,12.05
2023-01-26T13:29:35.423Z,14.13
2023-01-26T13:31:10.050Z,13.02
2023-01-26T13:32:54.258Z,14.25
2023-01-26T13:34:30.191Z,13.45
2023-01-26T13:36:06.903Z,13.25
2023-01-26T13:37:49.154Z,13.32
2023-01-26T13:39:28.799Z,14.77
2023-01-26T13:41:03.777Z,13.43
2023-01-26T13:42:48.484Z,14.98
2023-01-26T13:44:24.519Z,13.73
2023-01-26T13:46:03.899Z,13.95
2023-01-26T13:47:41.781Z,13.15
2023-01-26T13:49:25.831Z,14.02
2023-01-26T13:51:02.057Z,13.77
2023-01-26T13:52:34.759Z,12.27
2023-01-26T13:54:11.888Z,12.85
2023-01-26T13:55:44.741Z,12.77
2023-01-26T13:57:23.217Z,12.57
2023-01-26T13:59:09.078Z,14.20
2023-01-26T14:00:41.888Z,14.80
2023-01-26T14:02:23.763Z,14.25
2023-01-26T14:04:04.189Z,14.10
2023-01-26T14:05:37.078Z,13.23
2023-01-26T14:07:15.528Z,11.63
2023-01-26T14:08:53.416Z,12.95
2023-01-26T14:10:26.960Z,12.65
2023-01-26T14:12:02.488Z,14.82
2023-01-26T14:13:37.957Z,13.95
2023-01-26T14:15:23.252Z,14.02
2023-01-26T14:16:58.544Z,13.85
2023-01-26T14:18:31.664Z,14.38
2023-01-26T14:20:19.733Z,14.75
2023-01-26T14:21:53.921Z,15.48
2023-01-26T14:23:29.091Z,14.82
2023-01-26T14:25:01.796Z,15.30
2023-01-26T14:26:34.945Z,14.93
2023-01-26T14:28:13.748Z,15.10
2023-01-26T14:29:47.584Z,18.50
2023-01-26T14:31:24.059Z,20.63
2023-01-26T14:33:03.849Z,21.55
2023-01-26T14:34:36.577Z,26.77
2023-01-26T14:36:16.839Z,19.60
2023-01-26T14:37:49.752Z,16.83
2023-01-26T14:39:22.532Z,24.55
2023-01-26T14:40:56.854Z,19.10
2023-01-26T14:42:29.693Z,19.55
2023-01-26T14:44:04.897Z,21.52
2023-01-26T14:45:40.249Z,19.67
2023-01-26T14:47:21.551Z,19.20
2023-01-26T14:48:58.551Z,17.13
2023-01-26T14:50:32.260Z,15.90
2023-01-26T14:52:05.226Z,14.73
2023-01-26T14:53:38.367Z,13.88
2023-01-26T14:55:18.912Z,17.65
2023-01-26T14:56:51.732Z,15.57
2023-01-26T14:58:30.593Z,17.05
2023-01-26T15:00:08.803Z,17.67
2023-01-26T15:01:41.694Z,16.33
2023-01-26T15:03:23.277Z,17.83
2023-01-26T15:04:59.636Z,16.90
2023-01-26T15:06:32.958Z,20.10
2023-01-26T15:08:07.778Z,19.55
2023-01-26T15:09:40.453Z,18.95
2023-01-26T15:11:36.392Z,18.75
2023-01-26T15:13:21.471Z,15.50
2023-01-26T15:14:58.120Z,20.10
2023-01-26T15:16:30.835Z,18.38
2023-01-26T15:18:20.927Z,16.27
2023-01-26T15:19:53.807Z,15.43
2023-01-26T15:21:33.647Z,16.77
2023-01-26T15:23:22.635Z,17.42
2023-01-26T15:25:06.560Z,20.67
2023-01-26T15:26:39.362Z,16.30
2023-01-26T15:28:19.253Z,19.33
2023-01-26T15:29:59.042Z,20.30
2023-01-26T15:31:35.191Z,17.88
2023-01-26T15:33:34.560Z,16.08
2023-01-26T15:35:20.890Z,17.05
2023-01-26T15:36:53.641Z,19.85
2023-01-26T15:38:26.330Z,18.50
2023-01-26T15:39:59.075Z,21.98
2023-01-26T15:41:31.891Z,18.73
2023-01-26T15:43:12.724Z,17.63
2023-01-26T15:44:45.497Z,15.82
2023-01-26T15:46:18.328Z,19.25
2023-01-26T15:47:51.314Z,19.27
2023-01-26T15:49:24.131Z,21.10
2023-01-26T15:50:58.421Z,21.90
2023-01-26T15:52:31.246Z,16.77
2023-01-26T15:54:04.099Z,16.73
2023-01-26T15:55:37.471Z,20.15
2023-01-26T15:57:11.211Z,20.27
2023-01-26T15:58:44.322Z,18.95
2023-01-26T16:00:18.313Z,18.33
2023-01-26T16:01:51.078Z,20.27
2023-01-26T16:03:23.807Z,21.38
2023-01-26T16:04:56.561Z,21.10
2023-01-26T16:06:33.214Z,19.40
2023-01-26T16:08:06.213Z,23.05
2023-01-26T16:09:38.980Z,22.45
2023-01-26T16:11:13.487Z,20.73
2023-01-26T16:12:46.712Z,20.42
2023-01-26T16:14:20.156Z,21.02
2023-01-26T16:15:54.305Z,18.02
2023-01-26T16:17:27.165Z,19.08
2023-01-26T16:19:00.090Z,21.17
2023-01-26T16:20:32.871Z,24.17
2023-01-26T16:22:07.022Z,22.42
2023-01-26T16:23:39.743Z,22.95
2023-01-26T16:25:22.201Z,22.02
2023-01-26T16:26:54.914Z,21.45
2023-01-26T16:28:27.596Z,20.27
2023-01-26T16:30:00.281Z,20.55
2023-01-26T16:31:34.561Z,22.52
2023-01-26T16:33:07.282Z,21.63
2023-01-26T16:34:39.965Z,26.15
2023-01-26T16:36:14.709Z,24.17
2023-01-26T16:37:49.151Z,24.42
2023-01-26T16:39:21.853Z,22.95
2023-01-26T16:40:55.125Z,25.15
2023-01-26T16:42:27.957Z,24.65
2023-01-26T16:44:02.666Z,24.35
2023-01-26T16:45:35.357Z,23.25
2023-01-26T16:47:11.065Z,25.38
2023-01-26T16:48:43.797Z,26.55
2023-01-26T16:50:17.132Z,25.17
2023-01-26T16:51:49.837Z,27.63
2023-01-26T16:53:27.305Z,28.58
2023-01-26T16:54:59.993Z,27.27
2023-01-26T16:56:33.152Z,25.83
2023-01-26T16:58:05.820Z,27.98
2023-01-26T16:59:38.833Z,25.88
2023-01-26T17:01:19.299Z,25.73
2023-01-26T17:02:53.544Z,27.20
2023-01-26T17:04:26.268Z,24.08
2023-01-26T17:05:59.211Z,24.40
2023-01-26T17:07:31.892Z,27.63
2023-01-26T17:09:05.948Z,25.33
2023-01-26T17:10:51.915Z,28.40
2023-01-26T17:12:32.876Z,27.50
2023-01-26T17:14:05.679Z,74.03
2023-01-26T17:15:38.439Z,39.05
2023-01-26T17:17:11.317Z,32.38
2023-01-26T17:18:45.026Z,33.28
2023-01-26T17:20:19.645Z,42.25
2023-01-26T17:21:52.793Z,33.17
2023-01-26T17:23:25.472Z,29.02
2023-01-26T17:24:59.711Z,33.70
2023-01-26T17:26:32.410Z,32.55
2023-01-26T17:28:05.198Z,48.67
2023-01-26T17:29:39.608Z,29.90
2023-01-26T17:31:14.042Z,25.13
2023-01-26T17:32:46.909Z,23.13
2023-01-26T17:34:21.086Z,24.10
2023-01-26T17:36:00.585Z,45.78
2023-01-26T17:37:33.287Z,28.55
2023-01-26T17:39:05.965Z,30.90
2023-01-26T17:40:39.977Z,36.25
2023-01-26T17:42:12.899Z,30.50
2023-01-26T17:43:46.102Z,36.67
2023-01-26T17:45:18.911Z,50.00
2023-01-26T17:46:51.595Z,35.78
2023-01-26T17:48:24.353Z,33.78
2023-01-26T17:49:57.025Z,29.00
2023-01-26T17:51:29.689Z,26.00
2023-01-26T17:53:02.398Z,25.42
2023-01-26T17:54:35.325Z,29.15
2023-01-26T17:56:11.157Z,27.38
2023-01-26T17:57:43.930Z,27.17
2023-01-26T17:59:16.672Z,26.08
2023-01-26T18:00:49.402Z,23.25
2023-01-26T18:02:22.154Z,28.35
2023-01-26T18:03:54.895Z,27.48
2023-01-26T18:05:28.063Z,28.88
2023-01-26T18:07:02.050Z,26.13
2023-01-26T18:08:34.900Z,27.25
2023-01-26T18:10:09.284Z,27.00
2023-01-26T18:11:43.291Z,29.48
2023-01-26T18:13:16.586Z,31.10
2023-01-26T18:14:49.492Z,30.60
2023-01-26T18:16:22.949Z,30.95
2023-01-26T18:17:55.625Z,28.80
2023-01-26T18:19:28.426Z,32.55
2023-01-26T18:21:12.161Z,28.23
2023-01-26T18:22:44.879Z,28.95
2023-01-26T18:24:17.682Z,30.02
2023-01-26T18:25:51.092Z,30.00
2023-01-26T18:27:25.412Z,28.08
2023-01-26T18:28:58.561Z,28.80
2023-01-26T18:30:31.413Z,26.13
2023-01-26T18:32:04.508Z,29.13
2023-01-26T18:33:37.329Z,32.15
2023-01-26T18:35:10.970Z,29.25
2023-01-26T18:36:43.868Z,31.15
2023-01-26T18:38:16.584Z,30.17
2023-01-26T18:39:49.462Z,30.30
2023-01-26T18:41:23.738Z,28.77
2023-01-26T18:42:58.122Z,26.92
2023-01-26T18:44:31.289Z,37.85
2023-01-26T18:46:04.864Z,30.52
2023-01-26T18:47:37.663Z,30.58
2023-01-26T18:49:11.417Z,29.10
2023-01-26T18:50:48.663Z,29.90
2023-01-26T18:52:21.391Z,28.45
2023-01-26T18:53:54.131Z,27.20
2023-01-26T18:55:26.941Z,26.95
2023-01-26T18:56:59.675Z,28.45
2023-01-26T18:58:34.199Z,30.77
2023-01-26T19:00:09.100Z,30.10
2023-01-26T19:01:43.588Z,31.02
2023-01-26T19:03:18.040Z,31.85
2023-01-26T19:04:53.495Z,27.90
2023-01-26T19:06:28.252Z,29.40
2023-01-26T19:08:09.855Z,29.50
2023-01-26T19:09:42.533Z,30.73
2023-01-26T19:11:15.459Z,34.20
2023-01-26T19:12:50.222Z,31.60
2023-01-26T19:14:24.271Z,31.67
2023-01-26T19:15:56.945Z,34.17
2023-01-26T19:17:29.675Z,32.30
2023-01-26T19:19:02.416Z,34.00
2023-01-26T19:20:35.124Z,36.80
2023-01-26T19:22:07.795Z,32.25
2023-01-26T19:23:42.525Z,31.63
2023-01-26T19:25:15.327Z,30.63
2023-01-26T19:26:48.189Z,35.60
2023-01-26T19:28:21.152Z,35.95
2023-01-26T19:29:55.300Z,31.73
2023-01-26T19:31:28.858Z,31.70
2023-01-26T19:33:19.101Z,32.40
2023-01-26T19:34:51.773Z,33.47
2023-01-26T19:36:24.811Z,32.95
2023-01-26T19:37:57.543Z,32.47
2023-01-26T19:39:31.057Z,35.25
2023-01-26T19:41:03.780Z,30.73
2023-01-26T19:42:36.479Z,36.63
2023-01-26T19:44:09.361Z,36.38
2023-01-26T19:45:48.643Z,37.42
2023-01-26T19:47:21.348Z,38.55
2023-01-26T19:48:54.085Z,34.28
2023-01-26T19:50:26.967Z,32.97
2023-01-26T19:51:59.705Z,31.58
2023-01-26T19:53:33.031Z,32.38
2023-01-26T19:55:06.297Z,30.23
2023-01-26T19:56:39.243Z,30.75
2023-01-26T19:58:11.937Z,31.33
2023-01-26T19:59:44.623Z,32.22
2023-01-26T20:01:18.782Z,30.92
2023-01-26T20:02:51.508Z,29.60
2023-01-26T20:04:24.177Z,35.30
2023-01-26T20:05:57.323Z,31.75
2023-01-26T20:07:30.062Z,29.67
2023-01-26T20:09:04.348Z,34.22
2023-01-26T20:10:37.044Z,35.65
2023-01-26T20:12:11.059Z,39.30
2023-01-26T20:13:43.782Z,35.28
2023-01-26T20:15:16.587Z,37.17
2023-01-26T20:16:50.678Z,38.22
2023-01-26T20:18:23.423Z,40.05
2023-01-26T20:19:56.105Z,37.92
2023-01-26T20:21:29.970Z,38.20
2023-01-26T20:23:02.664Z,42.20
2023-01-26T20:24:35.506Z,34.55
2023-01-26T20:26:10.105Z,43.13
2023-01-26T20:27:43.095Z,42.92
2023-01-26T20:29:17.920Z,37.38
2023-01-26T20:30:50.609Z,33.80
2023-01-26T20:32:24.752Z,46.95
2023-01-26T20:33:58.333Z,58.75
2023-01-26T20:35:31.480Z,42.13
2023-01-26T20:37:04.619Z,40.30
2023-01-26T20:38:37.870Z,36.58
2023-01-26T20:40:12.628Z,42.40
2023-01-26T20:41:45.481Z,38.47